Terminal Aerodrome Forecast
Issued by NWS Sioux Falls, SD

Home | Current Version | Previous Version | Graphics & Text | Print | Product List | Glossary Off
Versions: 1 2 3 4 5 6 7 8 9 10 11 12 13

000
FTUS43 KFSD 011724
TAFHON
TAF
KHON 011724Z 0118/0218 33008KT P6SM SKC
     FM020000 VRB03KT P6SM SKC
     FM020700 16006KT P6SM SKC
     FM021400 16011KT P6SM SKC=

USA.gov is the U.S. government's official web portal to all federal, state and local government web resources and services.